ROSLDG Weather Reports


Display with metric or nautical units.
time (UTC)temp
F
wind
direction
speed
MPH
gust
MPH
rain 1hr
in
rain 24hr
in
rain mn
in
humidity
%
barometer
mb
20210615023531 60 357 0.0 3.0 0.00 0.00 0.00 88
20210615023031 61 0 0.0 0.0 0.00 0.00 0.00 88
20210615022531 61 0 0.0 0.0 0.00 0.00 0.00 88
20210615022031 61 357 0.0 3.0 0.00 0.00 0.00 87
20210615021532 61 357 0.0 4.0 0.00 0.00 0.00 86
20210615021031 61 0 0.0 0.0 0.00 0.00 0.00 85
20210615020531 62 0 0.0 0.0 0.00 0.00 0.00 84
20210615020031 62 0 0.0 0.0 0.00 0.00 0.00 84
20210615015531 62 0 0.0 0.0 0.00 0.00 0.00 83
20210615015031 63 0 0.0 0.0 0.00 0.00 0.00 83
20210615014531 63 0 0.0 0.0 0.00 0.00 0.00 83
20210615014031 63 0 0.0 0.0 0.00 0.00 0.00 82
20210615013531 63 0 0.0 0.0 0.00 0.00 0.00 82
20210615013031 63 0 0.0 0.0 0.00 0.00 0.00 81
20210615012531 63 0 0.0 0.0 0.00 0.00 0.00 81
20210615012031 63 0 0.0 0.0 0.00 0.00 0.00 79
20210615011531 63 0 0.0 0.0 0.00 0.00 0.00 79
20210615011031 64 0 0.0 0.0 0.00 0.00 0.00 77
20210615010531 64 0 0.0 0.0 0.00 0.00 0.00 76
20210615010031 65 0 0.0 0.0 0.00 0.00 0.00 75
20210615005531 64 357 0.0 3.0 0.00 0.00 0.00 76
20210615005031 64 357 0.0 4.0 0.00 0.00 0.00 75
20210615004532 64 357 0.0 2.0 0.00 0.00 0.00 75
20210615004031 64 0 0.0 0.0 0.00 0.00 0.00 75
20210615003531 63 43 0.0 4.0 0.00 0.00 0.00 76
20210615003031 63 43 0.0 5.0 0.00 0.00 0.00 75
20210615002531 63 43 0.0 2.0 0.00 0.00 0.00 75
20210615002030 63 357 0.0 3.0 0.00 0.00 0.00 74
20210615001530 63 35 0.0 4.0 0.00 0.00 0.00 74
20210615001031 64 35 0.0 2.0 0.00 0.00 0.00 72
20210615000531 64 35 0.0 2.0 0.00 0.00 0.00 71
20210615000031 64 0 0.0 0.0 0.00 0.00 0.00 71
20210614235531 64 0 0.0 0.0 0.00 0.00 0.00 70
20210614235031 64 0 0.0 0.0 0.00 0.00 0.00 70
20210614234531 64 0 0.0 0.0 0.00 0.00 0.00 70
20210614234034 64 35 0.0 2.0 0.00 0.00 0.00 69
20210614233532 65 0 0.0 0.0 0.00 0.00 0.00 68
20210614233034 66 35 0.0 2.0 0.00 0.00 0.00 67
20210614232531 66 0 0.0 0.0 0.00 0.00 0.00 68
20210614232031 66 0 0.0 0.0 0.00 0.00 0.00 69
20210614231531 66 35 0.0 3.0 0.00 0.00 0.00 69
20210614231031 66 35 0.0 4.0 0.00 0.00 0.00 68
20210614230532 66 357 0.0 4.0 0.00 0.00 0.00 68
20210614230031 66 0 0.0 0.0 0.00 0.00 0.00 71
20210614225531 65 357 0.0 2.0 0.00 0.00 0.00 71
20210614225031 65 357 0.0 4.0 0.00 0.00 0.00 71
20210614224532 65 357 0.0 1.0 0.00 0.00 0.00 70
20210614224031 65 357 0.0 4.0 0.00 0.00 0.00 69
20210614223533 66 0 0.0 0.0 0.00 0.00 0.00 69
20210614223031 66 357 0.0 1.0 0.00 0.00 0.00 70
20210614222531 66 0 0.0 0.0 0.00 0.00 0.00 69
20210614222031 66 357 0.0 3.0 0.00 0.00 0.00 69
20210614221531 66 357 0.0 6.0 0.00 0.00 0.00 71
20210614221031 66 57 1.0 5.0 0.00 0.00 0.00 71
20210614220530 66 0 0.0 0.0 0.00 0.00 0.00 73
20210614220031 66 247 0.0 9.0 0.00 0.00 0.00 74
20210614215531 65 36 0.0 1.0 0.00 0.00 0.00 76
20210614215031 65 36 0.0 3.0 0.00 0.00 0.00 76
20210614214530 65 289 0.0 6.0 0.00 0.00 0.00 76
20210614214031 66 357 0.0 3.0 0.00 0.00 0.00 76
20210614213531 65 357 0.0 4.0 0.00 0.00 0.00 78
20210614213031 65 357 0.0 4.0 0.00 0.00 0.00 76
20210614212531 65 30 0.0 4.0 0.00 0.00 0.00 76
20210614212031 65 0 0.0 0.0 0.00 0.00 0.00 75
20210614211530 65 30 0.0 3.0 0.00 0.00 0.00 75
20210614211031 65 30 0.0 4.0 0.00 0.00 0.00 74
20210614210531 66 30 0.0 4.0 0.00 0.00 0.00 75
20210614210031 66 33 0.0 1.0 0.00 0.00 0.00 76
20210614205531 66 33 0.0 3.0 0.00 0.00 0.00 77
20210614205031 65 357 0.0 3.0 0.00 0.00 0.00 79
20210614204531 65 0 0.0 0.0 0.00 0.00 0.00 80
20210614204031 65 357 0.0 3.0 0.00 0.00 0.00 79
20210614203531 65 357 0.0 3.0 0.00 0.00 0.00 79
20210614203031 65 357 0.0 2.0 0.00 0.00 0.00 79
20210614202531 64 357 0.0 1.0 0.00 0.00 0.00 81
20210614202031 65 299 0.0 4.0 0.00 0.00 0.00 82
20210614201531 64 299 0.0 3.0 0.00 0.00 0.00 82
20210614201031 64 299 0.0 3.0 0.00 0.00 0.00 84
20210614200531 64 299 0.0 3.0 0.00 0.00 0.00 84
20210614200031 64 357 0.0 1.0 0.00 0.00 0.00 84
20210614195531 64 0 0.0 0.0 0.00 0.00 0.00 84
20210614195031 63 357 0.0 2.0 0.00 0.00 0.00 85
20210614194531 63 357 0.0 3.0 0.00 0.00 0.00 86
20210614194031 63 0 0.0 0.0 0.00 0.00 0.00 86
20210614193531 63 0 0.0 0.0 0.00 0.00 0.00 86
20210614193030 63 0 0.0 0.0 0.00 0.00 0.00 87
20210614192530 63 357 0.0 2.0 0.00 0.00 0.00 87
20210614192032 63 357 0.0 3.0 0.00 0.00 0.00 87
20210614191530 64 357 0.0 3.0 0.00 0.00 0.00 85
20210614191031 64 217 0.0 3.0 0.00 0.00 0.00 85
20210614190531 64 217 0.0 7.0 0.00 0.00 0.00 86
20210614190031 63 357 0.0 2.0 0.00 0.00 0.00 86
20210614185531 63 357 0.0 5.0 0.00 0.00 0.00 86
20210614185031 63 261 0.0 7.0 0.00 0.00 0.00 85
20210614184531 64 288 0.0 3.0 0.00 0.00 0.00 87
20210614184030 63 357 0.0 3.0 0.00 0.00 0.00 87
20210614183532 63 357 0.0 3.0 0.00 0.00 0.00 88
20210614183030 63 298 0.0 2.0 0.00 0.00 0.00 87
20210614182530 63 357 0.0 2.0 0.00 0.00 0.00 87
20210614182031 63 14 0.0 2.0 0.00 0.00 0.00 86
20210614181531 63 0 0.0 0.0 0.00 0.00 0.00 86
20210614181030 63 14 0.0 2.0 0.00 0.00 0.00 84
20210614180531 62 0 0.0 0.0 0.00 0.00 0.00 82
20210614180031 62 14 0.0 1.0 0.00 0.00 0.00 83
20210614175531 62 14 0.0 3.0 0.00 0.00 0.00 83
20210614175030 62 0 0.0 0.0 0.00 0.00 0.00 83
20210614174531 61 0 0.0 0.0 0.00 0.00 0.00 83
20210614174031 61 357 0.0 3.0 0.00 0.00 0.00 86
20210614173531 61 0 0.0 0.0 0.00 0.00 0.00 86
20210614173031 61 0 0.0 0.0 0.00 0.00 0.00 88
20210614172533 61 0 0.0 0.0 0.00 0.00 0.00 90
20210614172030 60 0 0.0 0.0 0.00 0.00 0.00 92
20210614171530 60 0 0.0 0.0 0.00 0.00 0.00 94
20210614171031 60 0 0.0 0.0 0.00 0.00 0.00 95
20210614170531 60 0 0.0 0.0 0.00 0.00 0.00 97
20210614170031 60 0 0.0 0.0 0.00 0.00 0.00 98
20210614165530 60 0 0.0 0.0 0.00 0.00 0.00 99
20210614165031 60 0 0.0 0.0 0.00 0.00 0.00 100
20210614164531 59 0 0.0 0.0 0.00 0.00 0.00 100
20210614164031 59 0 0.0 0.0 0.00 0.00 0.00 100
20210614163531 59 0 0.0 0.0 0.00 0.00 0.00 100
20210614163030 59 0 0.0 0.0 0.00 0.00 0.00 100
20210614162531 58 0 0.0 0.0 0.00 0.00 0.00 100
20210614162030 58 0 0.0 0.0 0.00 0.00 0.00 100
20210614161531 58 0 0.0 0.0 0.00 0.00 0.00 100
20210614161031 57 0 0.0 0.0 0.00 0.00 0.00 100
20210614160530 57 0 0.0 0.0 0.00 0.00 0.00 100
20210614160030 57 0 0.0 0.0 0.00 0.00 0.00 100
20210614155530 57 0 0.0 0.0 0.00 0.00 0.00 100
20210614155121 57 0 0.0 0.0 0.00 0.00 0.00 100
20210614155030 57 0 0.0 0.0 0.00 0.00 0.00 100
20210614154530 57 0 0.0 0.0 0.00 0.00 0.00 100
20210614154030 57 0 0.0 0.0 0.00 0.00 0.00 100
20210614153530 57 0 0.0 0.0 0.00 0.00 0.00 100
20210614153030 57 0 0.0 0.0 0.00 0.00 0.00 100
20210614152619 57 0 0.0 0.0 0.00 0.00 0.00 100
20210614152530 57 0 0.0 0.0 0.00 0.00 0.00 100
20210614152030 57 0 0.0 0.0 0.00 0.00 0.00 100
20210614151530 57 0 0.0 0.0 0.00 0.00 0.00 100
20210614151030 57 0 0.0 0.0 0.00 0.00 0.00 100
20210614150530 57 0 0.0 0.0 0.00 0.00 0.00 100
20210614150031 57 0 0.0 0.0 0.00 0.00 0.00 100
20210614145530 57 0 0.0 0.0 0.00 0.00 0.00 100
20210614145225 58 0 0.0 0.0 0.00 0.00 0.00 100
20210614145031 58 0 0.0 0.0 0.00 0.00 0.00 100
20210614144530 58 0 0.0 0.0 0.00 0.00 0.00 99
20210614144030 57 0 0.0 0.0 0.00 0.00 0.00 100
20210614143530 56 0 0.0 0.0 0.00 0.00 0.00 100
20210614143030 56 0 0.0 0.0 0.00 0.00 0.00 100
20210614142530 56 0 0.0 0.0 0.00 0.00 0.00 100
20210614142030 56 0 0.0 0.0 0.00 0.00 0.00 100
20210614141530 56 0 0.0 0.0 0.00 0.00 0.00 100
20210614141030 56 0 0.0 0.0 0.00 0.00 0.00 100
20210614140530 56 0 0.0 0.0 0.00 0.00 0.00 100
20210614140030 56 0 0.0 0.0 0.00 0.00 0.00 100
20210614135531 55 0 0.0 0.0 0.00 0.00 0.00 100
20210614135030 55 0 0.0 0.0 0.00 0.00 0.00 100
20210614134530 55 0 0.0 0.0 0.00 0.00 0.00 100
20210614134030 55 0 0.0 0.0 0.00 0.00 0.00 100
20210614133530 55 0 0.0 0.0 0.00 0.00 0.00 100
20210614133030 55 0 0.0 0.0 0.00 0.00 0.00 100
20210614132530 55 0 0.0 0.0 0.00 0.00 0.00 100
20210614132030 55 0 0.0 0.0 0.00 0.00 0.00 100
20210614131530 55 0 0.0 0.0 0.00 0.00 0.00 100
20210614131030 55 0 0.0 0.0 0.00 0.00 0.00 100
20210614130530 55 0 0.0 0.0 0.00 0.00 0.00 100
20210614130030 55 0 0.0 0.0 0.00 0.00 0.00 100
20210614125530 55 0 0.0 0.0 0.00 0.00 0.00 100
20210614125324 56 0 0.0 0.0 0.00 0.00 0.00 100
20210614125029 56 0 0.0 0.0 0.00 0.00 0.00 100
20210614124029 56 0 0.0 0.0 0.00 0.00 0.00 100
20210614123529 56 0 0.0 0.0 0.00 0.00 0.00 100
20210614123029 56 0 0.0 0.0 0.00 0.00 0.00 100
20210614122530 56 0 0.0 0.0 0.00 0.00 0.00 100
20210614122031 56 0 0.0 0.0 0.00 0.00 0.00 100
20210614121531 56 0 0.0 0.0 0.00 0.00 0.00 100
20210614121029 56 0 0.0 0.0 0.00 0.00 0.00 100
20210614120529 56 0 0.0 0.0 0.00 0.00 0.00 100
20210614120124 56 0 0.0 0.0 0.00 0.00 0.00 100
20210614120029 56 0 0.0 0.0 0.00 0.00 0.00 100
20210614115529 56 0 0.0 0.0 0.00 0.00 0.00 100
20210614115030 56 0 0.0 0.0 0.00 0.00 0.00 100
20210614114530 56 0 0.0 0.0 0.00 0.00 0.00 100
20210614114029 56 0 0.0 0.0 0.00 0.00 0.00 100
20210614113622 57 0 0.0 0.0 0.00 0.00 0.00 100
20210614113529 57 0 0.0 0.0 0.00 0.00 0.00 100
20210614113029 57 0 0.0 0.0 0.00 0.00 0.00 100
20210614112720 57 0 0.0 0.0 0.00 0.00 0.00 100
20210614112530 57 0 0.0 0.0 0.00 0.00 0.00 100
20210614112029 57 0 0.0 0.0 0.00 0.00 0.00 100
20210614111529 57 0 0.0 0.0 0.00 0.00 0.00 100
20210614111030 57 0 0.0 0.0 0.00 0.00 0.00 100
20210614110529 57 0 0.0 0.0 0.00 0.00 0.00 100
20210614110029 57 0 0.0 0.0 0.00 0.00 0.00 100
20210614105529 57 0 0.0 0.0 0.00 0.00 0.00 100
20210614105029 57 0 0.0 0.0 0.00 0.00 0.00 100
20210614104530 57 0 0.0 0.0 0.00 0.00 0.00 99
20210614104029 57 0 0.0 0.0 0.00 0.00 0.00 100
20210614103531 57 0 0.0 0.0 0.00 0.00 0.00 100
20210614103029 57 0 0.0 0.0 0.00 0.00 0.00 100
20210614102530 57 0 0.0 0.0 0.00 0.00 0.00 100
20210614102030 57 0 0.0 0.0 0.00 0.00 0.00 100
20210614101529 57 0 0.0 0.0 0.00 0.00 0.00 100
20210614101029 57 0 0.0 0.0 0.00 0.00 0.00 100
20210614100529 57 0 0.0 0.0 0.00 0.00 0.00 100
20210614100030 57 0 0.0 0.0 0.00 0.00 0.00 100
20210614095627 57 0 0.0 0.0 0.00 0.00 0.00 100
20210614095529 57 0 0.0 0.0 0.00 0.00 0.00 100
20210614095029 57 0 0.0 0.0 0.00 0.00 0.00 100
20210614094529 57 0 0.0 0.0 0.00 0.00 0.00 100
20210614094030 57 0 0.0 0.0 0.00 0.00 0.00 100
20210614093530 57 0 0.0 0.0 0.00 0.00 0.00 100
20210614093029 57 0 0.0 0.0 0.00 0.00 0.00 100
20210614092529 57 0 0.0 0.0 0.00 0.00 0.00 100
20210614092029 57 0 0.0 0.0 0.00 0.00 0.00 100
20210614091529 57 0 0.0 0.0 0.00 0.00 0.00 99
20210614091029 57 0 0.0 0.0 0.00 0.00 0.00 100
20210614090529 57 0 0.0 0.0 0.00 0.00 0.00 99
20210614090153 57 0 0.0 0.0 0.00 0.00 0.00 100
20210614090029 57 0 0.0 0.0 0.00 0.00 0.00 100
20210614085529 57 0 0.0 0.0 0.00 0.00 0.00 100
20210614085125 57 0 0.0 0.0 0.00 0.00 0.00 99
20210614085029 57 0 0.0 0.0 0.00 0.00 0.00 99
20210614084530 57 0 0.0 0.0 0.00 0.00 0.00 100
20210614084115 57 0 0.0 0.0 0.00 0.00 0.00 100
20210614084030 57 0 0.0 0.0 0.00 0.00 0.00 100
20210614083620 57 0 0.0 0.0 0.00 0.00 0.00 100
20210614083530 57 0 0.0 0.0 0.00 0.00 0.00 100
20210614083030 57 0 0.0 0.0 0.00 0.00 0.00 100
20210614082529 57 0 0.0 0.0 0.00 0.00 0.00 100
20210614082029 57 0 0.0 0.0 0.00 0.00 0.00 100
20210614081657 57 0 0.0 0.0 0.00 0.00 0.00 100
20210614081529 57 0 0.0 0.0 0.00 0.00 0.00 100
20210614081029 57 0 0.0 0.0 0.00 0.00 0.00 100
20210614080629 57 0 0.0 0.0 0.00 0.00 0.00 100
20210614080529 57 0 0.0 0.0 0.00 0.00 0.00 100
20210614080029 57 0 0.0 0.0 0.00 0.00 0.00 100
20210614075628 57 0 0.0 0.0 0.00 0.00 0.00 100
20210614075529 57 0 0.0 0.0 0.00 0.00 0.00 100
20210614075029 57 0 0.0 0.0 0.00 0.00 0.00 100
20210614074552 57 0 0.0 0.0 0.00 0.00 0.00 100
20210614074529 57 0 0.0 0.0 0.00 0.00 0.00 100
20210614074029 57 0 0.0 0.0 0.00 0.00 0.00 100
20210614073530 57 0 0.0 0.0 0.00 0.00 0.00 100
20210614073029 57 0 0.0 0.0 0.00 0.00 0.00 100
20210614072529 57 0 0.0 0.0 0.00 0.00 0.00 100
20210614072029 57 0 0.0 0.0 0.00 0.00 0.00 100
20210614071621 57 0 0.0 0.0 0.00 0.00 0.00 100
20210614071529 57 0 0.0 0.0 0.00 0.00 0.00 100
20210614071029 57 0 0.0 0.0 0.00 0.00 0.00 100
20210614070530 57 0 0.0 0.0 0.00 0.00 0.00 100
20210614070030 57 0 0.0 0.0 0.00 0.00 0.00 100
20210614065530 57 0 0.0 0.0 0.00 0.00 0.00 100
20210614065030 57 0 0.0 0.0 0.00 0.00 0.00 100
20210614064529 57 0 0.0 0.0 0.00 0.00 0.00 100
20210614064029 57 0 0.0 0.0 0.00 0.00 0.00 100
20210614063530 57 0 0.0 0.0 0.00 0.00 0.00 100
20210614063029 57 0 0.0 0.0 0.00 0.00 0.00 100
20210614062530 57 0 0.0 0.0 0.00 0.00 0.00 100
20210614062030 57 0 0.0 0.0 0.00 0.00 0.00 100
20210614061529 57 0 0.0 0.0 0.00 0.00 0.00 100
20210614061030 57 0 0.0 0.0 0.00 0.00 0.00 100
20210614060529 57 0 0.0 0.0 0.00 0.00 0.00 100
20210614060029 58 0 0.0 0.0 0.00 0.00 0.00 100
20210614055529 58 0 0.0 0.0 0.00 0.00 0.00 100
20210614055030 58 0 0.0 0.0 0.00 0.00 0.00 100
20210614054529 58 0 0.0 0.0 0.00 0.00 0.00 100
20210614054030 57 0 0.0 0.0 0.00 0.00 0.00 100
20210614053530 58 0 0.0 0.0 0.00 0.00 0.00 100
20210614053029 58 0 0.0 0.0 0.00 0.00 0.00 100
20210614052529 57 0 0.0 0.0 0.00 0.00 0.00 100
20210614052135 58 0 0.0 0.0 0.00 0.00 0.00 100
20210614052029 58 0 0.0 0.0 0.00 0.00 0.00 100
20210614051529 58 0 0.0 0.0 0.00 0.00 0.00 100
20210614051030 58 0 0.0 0.0 0.00 0.00 0.00 100
20210614050530 58 0 0.0 0.0 0.00 0.00 0.00 100
20210614050030 58 0 0.0 0.0 0.00 0.00 0.00 100
20210614045530 58 0 0.0 0.0 0.00 0.00 0.00 100
20210614045030 58 0 0.0 0.0 0.00 0.00 0.00 100
20210614044530 58 0 0.0 0.0 0.00 0.00 0.00 100
20210614044030 58 0 0.0 0.0 0.00 0.00 0.00 100
20210614043529 58 0 0.0 0.0 0.00 0.00 0.00 100
20210614043031 58 0 0.0 0.0 0.00 0.00 0.00 100
20210614042529 58 0 0.0 0.0 0.00 0.00 0.00 100
20210614042031 58 0 0.0 0.0 0.00 0.00 0.00 100
20210614041530 58 0 0.0 0.0 0.00 0.00 0.00 100
20210614041029 58 0 0.0 0.0 0.00 0.00 0.00 100
20210614040530 58 0 0.0 0.0 0.00 0.00 0.00 100
20210614040030 58 0 0.0 0.0 0.00 0.00 0.00 100
20210614035530 58 0 0.0 0.0 0.00 0.00 0.00 100
20210614035030 58 0 0.0 0.0 0.00 0.00 0.00 100
20210614034530 58 0 0.0 0.0 0.00 0.00 0.00 100
20210614034029 58 0 0.0 0.0 0.00 0.00 0.00 100
20210614033530 58 0 0.0 0.0 0.00 0.00 0.00 100
20210614033029 58 0 0.0 0.0 0.00 0.00 0.00 100
20210614032529 58 0 0.0 0.0 0.00 0.00 0.00 100
20210614032029 58 0 0.0 0.0 0.00 0.00 0.00 100
20210614031530 59 0 0.0 0.0 0.00 0.00 0.00 100
20210614031030 59 0 0.0 0.0 0.00 0.00 0.00 100
20210614030530 59 0 0.0 0.0 0.00 0.00 0.00 100
20210614030030 59 0 0.0 0.0 0.00 0.00 0.00 100
20210614025530 59 0 0.0 0.0 0.00 0.00 0.00 100
20210614025030 59 0 0.0 0.0 0.00 0.00 0.00 100
20210614024529 59 0 0.0 0.0 0.00 0.00 0.00 100
20210614024029 59 0 0.0 0.0 0.00 0.00 0.00 100